Time;durP1;ratioP1;P1;durP2;ratioP2;P2;SDS_P1;SDS_P2;PMS_P1;PMS_P2;Temp;Humidity;BMP_temperature;BMP_pressure;BME280_temperature;BME280_humidity;BME280_pressure;Samples;Min_cycle;Max_cycle;Signal;HPM_P1;HPM_P2
2022/01/24 00:01:02;;;;;;;27.92;26.02;;;3.60;83.30;;;;;;5032855;28;20223;-72
2022/01/24 00:03:29;;;;;;;265.88;45.80;;;3.50;83.90;;;;;;5032666;28;20312;-72
2022/01/24 00:05:56;;;;;;;30.40;28.40;;;3.40;87.00;;;;;;5032703;28;20655;-72
2022/01/24 00:08:23;;;;;;;26.00;24.13;;;3.40;89.10;;;;;;5032505;28;20658;-72
2022/01/24 00:10:52;;;;;;;27.33;25.38;;;3.40;87.00;;;;;;5032590;28;20223;-72
2022/01/24 00:16:17;;;;;;;27.98;25.98;;;3.30;84.90;;;;;;5011752;28;20547;-72
2022/01/24 00:26:59;;;;;;;29.05;26.95;;;2.90;87.00;;;;;;5032668;28;20623;-72
2022/01/24 00:29:28;;;;;;;27.05;25.25;;;2.90;86.40;;;;;;5032493;28;20201;-72
2022/01/24 00:31:56;;;;;;;26.35;24.33;;;2.80;86.50;;;;;;5032705;28;20676;-72
2022/01/24 00:34:24;;;;;;;26.25;24.48;;;2.80;87.00;;;;;;5032627;28;20198;-72
2022/01/24 00:36:52;;;;;;;28.00;25.60;;;2.70;86.70;;;;;;5032326;28;20209;-72
2022/01/24 00:39:19;;;;;;;25.92;24.13;;;2.70;86.60;;;;;;5034774;28;20231;-72
2022/01/24 00:41:55;;;;;;;26.42;24.63;;;2.70;86.50;;;;;;5036799;28;20208;-72
2022/01/24 00:44:42;;;;;;;26.65;24.88;;;2.70;86.30;;;;;;5036426;28;20227;-72
2022/01/24 00:47:15;;;;;;;27.05;25.10;;;2.70;87.70;;;;;;5036363;28;20207;-72
2022/01/24 00:49:52;;;;;;;26.77;24.90;;;2.60;86.90;;;;;;5036174;28;20575;-72
2022/01/24 00:55:09;;;;;;;27.10;25.17;;;2.50;86.90;;;;;;5025625;28;20697;-72
2022/01/24 00:57:36;;;;;;;28.27;26.38;;;2.50;87.00;;;;;;5036238;28;20209;-72
2022/01/24 01:00:05;;;;;;;26.70;24.52;;;2.40;87.00;;;;;;5036013;28;20304;-72
2022/01/24 01:02:32;;;;;;;26.95;24.95;;;2.40;87.30;;;;;;5036226;28;20240;-72
2022/01/24 01:05:20;;;;;;;27.98;25.98;;;2.40;87.50;;;;;;5035750;28;20228;-72
2022/01/24 01:07:57;;;;;;;26.85;24.83;;;2.30;87.00;;;;;;5036023;28;20201;-72
2022/01/24 01:18:40;;;;;;;25.73;24.02;;;2.10;88.20;;;;;;5035967;28;20192;-72
2022/01/24 01:21:11;;;;;;;27.10;25.20;;;2.00;88.40;;;;;;5035594;28;20661;-72
2022/01/24 01:23:42;;;;;;;27.27;25.30;;;2.00;88.60;;;;;;5035709;28;20682;-72
2022/01/24 01:26:16;;;;;;;27.77;25.70;;;1.90;88.80;;;;;;5035757;28;20252;-72
2022/01/24 01:28:46;;;;;;;28.00;25.90;;;1.90;88.60;;;;;;5035663;28;20219;-72
2022/01/24 01:31:24;;;;;;;26.40;24.35;;;2.00;88.70;;;;;;5035390;28;20218;-72
2022/01/24 01:34:00;;;;;;;27.27;25.23;;;1.90;88.50;;;;;;5035652;28;20262;-72
2022/01/24 01:36:45;;;;;;;26.33;24.52;;;1.90;88.70;;;;;;5035535;28;20259;-72
2022/01/24 01:39:37;;;;;;;28.30;26.15;;;1.90;88.70;;;;;;5035183;28;20215;-72
2022/01/24 01:53:23;;;;;;;28.20;25.90;;;1.80;88.70;;;;;;5035409;28;20197;-72
2022/01/24 01:55:50;;;;;;;28.17;26.10;;;1.80;88.70;;;;;;5035105;28;20614;-72
2022/01/24 01:58:20;;;;;;;28.63;26.42;;;1.80;88.70;;;;;;5035046;28;20290;-72
2022/01/24 02:00:49;;;;;;;27.30;25.15;;;1.70;89.20;;;;;;5034867;28;20233;-72
2022/01/24 02:03:18;;;;;;;27.30;25.30;;;1.70;89.00;;;;;;5034928;28;20200;-72
2022/01/24 02:05:45;;;;;;;27.23;25.20;;;1.70;89.10;;;;;;5035004;28;20740;-72
2022/01/24 02:08:12;;;;;;;28.50;26.23;;;1.60;89.30;;;;;;5034762;28;20247;-72
2022/01/24 02:10:43;;;;;;;226.35;45.47;;;1.60;89.80;;;;;;5034788;28;20304;-72
2022/01/24 02:13:11;;;;;;;299.13;57.70;;;1.50;90.80;;;;;;5034809;28;20197;-72
2022/01/24 02:15:46;;;;;;;28.83;26.58;;;1.50;91.90;;;;;;5034782;28;20197;-72
2022/01/24 02:18:25;;;;;;;30.60;28.15;;;1.50;93.20;;;;;;5035060;28;20196;-72
2022/01/24 02:23:49;;;;;;;28.20;25.83;;;1.40;91.10;;;;;;4998769;28;20198;-72
2022/01/24 02:26:20;;;;;;;28.40;26.30;;;1.30;91.40;;;;;;5058501;22;20229;-72
2022/01/24 02:28:58;;;;;;;29.05;26.85;;;1.30;91.00;;;;;;5054576;28;20204;-72
2022/01/24 02:34:29;;;;;;;27.98;25.83;;;1.40;90.50;;;;;;5029617;28;20676;-72
2022/01/24 02:36:58;;;;;;;28.67;26.42;;;1.30;90.60;;;;;;5054331;28;20204;-72
2022/01/24 02:39:45;;;;;;;28.13;25.92;;;1.40;90.50;;;;;;5054087;28;20193;-72
2022/01/24 02:50:46;;;;;;;29.95;27.52;;;1.40;90.20;;;;;;5053898;28;20215;-72
2022/01/24 02:53:13;;;;;;;29.52;27.42;;;1.30;90.00;;;;;;5054070;28;20197;-72
2022/01/24 02:55:42;;;;;;;28.48;26.05;;;1.30;89.80;;;;;;5053895;28;20288;-72
2022/01/24 02:58:09;;;;;;;27.13;25.23;;;1.20;90.30;;;;;;5053918;28;20198;-72
2022/01/24 03:00:39;;;;;;;29.70;27.30;;;1.10;90.80;;;;;;5053649;28;20327;-72
2022/01/24 03:03:06;;;;;;;28.73;26.50;;;1.10;91.10;;;;;;5053484;28;20211;-72
2022/01/24 03:05:33;;;;;;;172.77;40.05;;;1.10;91.20;;;;;;5053744;28;20216;-72
2022/01/24 03:08:01;;;;;;;28.98;26.80;;;1.10;94.20;;;;;;5053514;28;20196;-72
2022/01/24 03:10:34;;;;;;;29.25;27.05;;;1.10;93.80;;;;;;5053455;28;20793;-72
2022/01/24 03:13:18;;;;;;;27.77;25.77;;;1.10;92.80;;;;;;5053635;28;20201;-72
2022/01/24 03:15:47;;;;;;;30.17;27.88;;;1.10;92.20;;;;;;5053575;28;20201;-72
2022/01/24 03:18:14;;;;;;;30.30;27.90;;;1.10;92.00;;;;;;5053493;28;20201;-72
2022/01/24 03:20:41;;;;;;;29.15;26.95;;;1.00;91.60;;;;;;5053310;28;20216;-72
2022/01/24 03:23:08;;;;;;;29.83;27.48;;;0.90;91.70;;;;;;5053607;28;20263;-72
2022/01/24 03:25:35;;;;;;;29.75;27.35;;;0.80;92.30;;;;;;5053048;28;20216;-72
2022/01/24 03:28:05;;;;;;;30.27;27.48;;;0.90;92.50;;;;;;5053305;28;20539;-72
2022/01/24 03:30:32;;;;;;;148.82;37.67;;;0.90;92.10;;;;;;5053063;28;20282;-72
2022/01/24 03:33:00;;;;;;;53.80;31.30;;;0.80;92.60;;;;;;5053386;28;20283;-72
2022/01/24 03:35:27;;;;;;;30.05;27.58;;;0.80;93.00;;;;;;5053231;28;20250;-72
2022/01/24 03:37:54;;;;;;;30.02;27.75;;;0.80;92.90;;;;;;5053117;28;20657;-72
2022/01/24 03:40:21;;;;;;;29.70;27.20;;;0.80;92.90;;;;;;5052901;28;20307;-72
2022/01/24 03:42:48;;;;;;;28.83;26.52;;;0.80;92.90;;;;;;5053147;28;20203;-72
2022/01/24 03:45:24;;;;;;;30.45;28.15;;;0.80;92.70;;;;;;5052894;28;20303;-72
2022/01/24 03:48:03;;;;;;;30.30;27.80;;;0.80;92.50;;;;;;5052943;28;20242;-72
2022/01/24 03:50:30;;;;;;;31.20;28.80;;;0.70;92.80;;;;;;5052878;28;20216;-72
2022/01/24 03:52:57;;;;;;;29.67;27.48;;;0.70;93.00;;;;;;5052942;28;20201;-72
2022/01/24 03:55:24;;;;;;;30.10;27.80;;;0.70;92.90;;;;;;5052895;28;20543;-72
2022/01/24 03:57:51;;;;;;;29.23;27.13;;;0.80;92.60;;;;;;5052872;28;20192;-72
2022/01/24 04:00:19;;;;;;;32.05;29.58;;;0.80;92.50;;;;;;5052494;28;20212;-72
2022/01/24 04:02:46;;;;;;;31.25;28.75;;;0.80;92.50;;;;;;5052542;28;20211;-72
2022/01/24 04:05:13;;;;;;;30.55;28.25;;;0.80;92.10;;;;;;5052661;28;20238;-72
2022/01/24 04:07:41;;;;;;;31.27;28.77;;;0.80;92.20;;;;;;5052627;28;20650;-72
2022/01/24 04:10:09;;;;;;;32.63;29.95;;;0.80;92.10;;;;;;5052107;28;20686;-72
2022/01/24 04:12:39;;;;;;;32.25;29.52;;;0.80;92.00;;;;;;5052517;28;20646;-72
2022/01/24 04:15:12;;;;;;;31.85;29.55;;;0.80;91.90;;;;;;5052246;28;20192;-72
2022/01/24 04:17:44;;;;;;;30.98;28.30;;;0.70;92.30;;;;;;5052372;28;20197;-72
2022/01/24 04:22:58;;;;;;;34.03;31.20;;;0.80;91.90;;;;;;5052653;28;20200;-72
2022/01/24 04:25:26;;;;;;;63.10;32.92;;;0.80;91.90;;;;;;5052290;28;20323;-72
2022/01/24 04:27:54;;;;;;;92.93;36.30;;;0.70;92.90;;;;;;5052454;28;20197;-72
2022/01/24 04:30:22;;;;;;;33.78;30.23;;;0.60;94.00;;;;;;5052152;28;20575;-72
2022/01/24 04:32:50;;;;;;;32.78;30.02;;;0.60;94.00;;;;;;5052393;28;20239;-72
2022/01/24 04:35:17;;;;;;;33.47;30.85;;;0.60;94.10;;;;;;5052381;28;20196;-72
2022/01/24 04:37:44;;;;;;;31.33;28.85;;;0.60;94.70;;;;;;5052312;28;20192;-72
2022/01/24 04:40:12;;;;;;;32.75;30.17;;;0.60;94.20;;;;;;5052038;28;20719;-72
2022/01/24 04:42:48;;;;;;;31.33;28.73;;;0.60;93.70;;;;;;5052357;28;20193;-72
2022/01/24 04:45:31;;;;;;;32.50;30.13;;;0.50;93.60;;;;;;5052239;28;20307;-72
2022/01/24 04:51:00;;;;;;;31.92;29.52;;;0.60;93.70;;;;;;5052059;28;20223;-72
2022/01/24 04:53:52;;;;;;;33.22;30.65;;;0.60;93.10;;;;;;5052227;28;20224;-72
2022/01/24 04:56:19;;;;;;;31.23;28.80;;;0.70;93.10;;;;;;5052194;28;20196;-72
2022/01/24 04:58:46;;;;;;;31.95;29.45;;;0.60;92.70;;;;;;5052222;28;20207;-72
2022/01/24 05:01:13;;;;;;;32.03;29.30;;;0.60;93.20;;;;;;5051867;28;20223;-72
2022/01/24 05:03:41;;;;;;;30.23;28.02;;;0.60;93.00;;;;;;5051947;28;20201;-72
2022/01/24 05:06:08;;;;;;;33.10;29.95;;;0.60;92.90;;;;;;5051985;28;20227;-72
2022/01/24 05:08:35;;;;;;;31.02;28.63;;;0.60;92.60;;;;;;5051793;28;20201;-72
2022/01/24 05:11:06;;;;;;;30.40;28.05;;;0.50;92.60;;;;;;5051941;28;20651;-72
2022/01/24 05:24:32;;;;;;;31.17;28.40;;;0.50;92.90;;;;;;5052831;28;20196;-72
2022/01/24 05:26:59;;;;;;;32.25;29.77;;;0.60;92.60;;;;;;5055753;28;20197;-72
2022/01/24 05:29:27;;;;;;;32.92;30.33;;;0.60;92.40;;;;;;5055291;28;20201;-72
2022/01/24 05:31:55;;;;;;;31.20;28.70;;;0.70;92.10;;;;;;5055492;28;20203;-72
2022/01/24 05:34:23;;;;;;;33.28;30.58;;;0.60;92.00;;;;;;5055468;28;20684;-72
2022/01/24 05:36:50;;;;;;;32.47;29.90;;;0.60;92.10;;;;;;5055433;28;20227;-72
2022/01/24 05:39:17;;;;;;;32.58;29.98;;;0.60;92.10;;;;;;5055158;28;20196;-72
2022/01/24 05:41:44;;;;;;;31.77;29.35;;;0.60;92.20;;;;;;5055401;28;20199;-72
2022/01/24 05:44:11;;;;;;;32.05;29.65;;;0.50;92.20;;;;;;5055350;28;20207;-73
2022/01/24 05:46:38;;;;;;;31.13;28.52;;;0.60;92.20;;;;;;5055204;28;20554;-72
2022/01/24 05:49:05;;;;;;;31.90;29.42;;;0.60;92.00;;;;;;5055147;28;20558;-72
2022/01/24 05:51:33;;;;;;;32.20;29.73;;;0.60;91.80;;;;;;5054974;28;20646;-72
2022/01/24 05:54:00;;;;;;;30.67;28.33;;;0.50;92.00;;;;;;5055258;28;20248;-72
2022/01/24 05:56:27;;;;;;;33.03;29.77;;;0.40;92.40;;;;;;5055091;28;20199;-72
2022/01/24 05:58:54;;;;;;;31.50;28.70;;;0.40;92.80;;;;;;5054994;28;20203;-72
2022/01/24 06:01:21;;;;;;;34.30;31.33;;;0.40;92.90;;;;;;5054758;28;20228;-72
2022/01/24 06:03:48;;;;;;;34.58;31.65;;;0.40;93.10;;;;;;5054576;28;20207;-72
2022/01/24 06:06:15;;;;;;;35.17;32.28;;;0.30;93.20;;;;;;5054876;28;20217;-72
2022/01/24 06:08:43;;;;;;;33.35;30.45;;;0.40;93.20;;;;;;5054689;28;20201;-71
2022/01/24 06:11:10;;;;;;;32.45;29.67;;;0.50;92.80;;;;;;5054617;28;20224;-72
2022/01/24 06:13:37;;;;;;;32.33;29.75;;;0.50;92.40;;;;;;5054731;28;20287;-72
2022/01/24 06:16:05;;;;;;;34.97;31.98;;;0.50;92.40;;;;;;5054764;28;20201;-71
2022/01/24 06:18:32;;;;;;;34.28;31.42;;;0.50;92.50;;;;;;5054534;28;20291;-72
2022/01/24 06:20:59;;;;;;;33.35;30.42;;;0.40;92.60;;;;;;5054366;28;20339;-72
2022/01/24 06:23:26;;;;;;;33.85;31.08;;;0.40;92.90;;;;;;5054672;28;20330;-72
2022/01/24 06:25:54;;;;;;;33.83;31.00;;;0.40;93.00;;;;;;5054233;28;20771;-72
2022/01/24 06:28:21;;;;;;;31.35;28.73;;;0.40;92.80;;;;;;5054503;28;20235;-72
2022/01/24 06:30:48;;;;;;;34.03;31.20;;;0.40;95.60;;;;;;5054116;28;20227;-72
2022/01/24 06:33:15;;;;;;;33.75;30.80;;;0.50;94.20;;;;;;5054375;28;20201;-72
2022/01/24 06:35:42;;;;;;;129.13;40.85;;;0.50;93.70;;;;;;5054039;28;20236;-72
2022/01/24 06:38:09;;;;;;;37.15;33.22;;;0.40;93.80;;;;;;5054080;28;20196;-72
2022/01/24 06:40:36;;;;;;;34.60;31.40;;;0.50;93.90;;;;;;5053980;28;20235;-72
2022/01/24 06:43:04;;;;;;;33.60;30.85;;;0.50;93.80;;;;;;5054260;28;20199;-72
2022/01/24 06:45:31;;;;;;;33.72;31.20;;;0.60;93.30;;;;;;5054118;28;20311;-72
2022/01/24 06:47:58;;;;;;;33.95;31.45;;;0.50;93.00;;;;;;5054128;28;20201;-72
2022/01/24 06:50:25;;;;;;;31.63;29.23;;;0.60;93.20;;;;;;5053799;28;20311;-72
2022/01/24 06:52:52;;;;;;;358.13;72.32;;;0.50;93.00;;;;;;5054012;28;20223;-72
2022/01/24 06:55:19;;;;;;;34.85;31.75;;;0.60;94.40;;;;;;5053978;28;20197;-72
2022/01/24 06:57:46;;;;;;;33.45;30.55;;;0.60;99.30;;;;;;5053905;28;20229;-72
2022/01/24 07:00:15;;;;;;;279.02;59.38;;;0.70;97.40;;;;;;5053629;28;20822;-72
2022/01/24 07:02:42;;;;;;;33.97;31.00;;;0.70;99.50;;;;;;5053906;28;20553;-72
2022/01/24 07:05:09;;;;;;;472.60;87.63;;;0.70;97.70;;;;;;5053452;28;20200;-72
2022/01/24 07:07:36;;;;;;;34.45;31.17;;;0.80;96.90;;;;;;5053705;28;20203;-72
2022/01/24 07:10:05;;;;;;;43.75;31.35;;;0.80;96.30;;;;;;5053312;28;20227;-72
2022/01/24 07:12:31;;;;;;;34.42;31.67;;;0.80;96.40;;;;;;5053614;28;20291;-72
2022/01/24 07:15:04;;;;;;;34.13;30.63;;;0.70;96.50;;;;;;5053451;28;20197;-72
2022/01/24 07:17:56;;;;;;;590.05;88.38;;;0.80;96.60;;;;;;5053578;28;20235;-72
2022/01/24 07:20:21;;;;;;;34.22;31.38;;;0.90;98.30;;;;;;5053171;28;20216;-72
2022/01/24 07:22:48;;;;;;;35.88;32.70;;;0.90;97.00;;;;;;5053338;28;20212;-72
2022/01/24 07:25:15;;;;;;;32.80;30.25;;;1.00;95.80;;;;;;5053038;28;20531;-72
2022/01/24 07:27:42;;;;;;;32.53;29.92;;;1.00;96.00;;;;;;5053344;28;20286;-72
2022/01/24 07:30:10;;;;;;;30.90;28.55;;;1.00;94.80;;;;;;5053049;28;20299;-72
2022/01/24 07:32:38;;;;;;;34.08;31.38;;;1.10;93.60;;;;;;5053245;28;20284;-72
2022/01/24 07:35:06;;;;;;;33.35;30.75;;;1.00;92.80;;;;;;5053114;28;20688;-72
2022/01/24 07:37:33;;;;;;;34.53;31.48;;;1.00;92.60;;;;;;5053079;28;20247;-72
2022/01/24 07:39:59;;;;;;;34.75;31.98;;;1.10;92.80;;;;;;5052836;28;20220;-72
2022/01/24 07:42:50;;;;;;;33.28;30.50;;;1.30;92.20;;;;;;5053080;28;20674;-72
2022/01/24 07:45:16;;;;;;;32.17;29.85;;;1.30;91.10;;;;;;5052855;28;20197;-72
2022/01/24 07:47:47;;;;;;;35.25;32.47;;;1.20;91.30;;;;;;5052282;28;20307;-72
2022/01/24 07:50:14;;;;;;;33.83;31.33;;;1.40;90.90;;;;;;5052648;28;20763;-72
2022/01/24 07:52:41;;;;;;;30.77;28.38;;;1.40;90.50;;;;;;5052984;28;20219;-72
2022/01/24 07:55:09;;;;;;;46.97;31.25;;;1.40;93.10;;;;;;5052827;28;20201;-72
2022/01/24 07:57:35;;;;;;;33.05;30.25;;;1.40;91.40;;;;;;5052841;28;20202;-72
2022/01/24 08:00:04;;;;;;;52.13;33.50;;;1.50;93.20;;;;;;5052623;28;20212;-72
2022/01/24 08:02:31;;;;;;;34.13;31.42;;;1.70;91.90;;;;;;5052844;28;20279;-72
2022/01/24 08:05:00;;;;;;;34.85;31.50;;;1.70;91.90;;;;;;5052450;28;20204;-72
2022/01/24 08:07:27;;;;;;;33.92;31.23;;;1.80;90.80;;;;;;5052618;28;20231;-72
2022/01/24 08:09:54;;;;;;;32.10;29.50;;;1.80;91.00;;;;;;5052200;28;20226;-72
2022/01/24 08:12:20;;;;;;;90.97;36.75;;;2.00;90.90;;;;;;5052656;28;20565;-73
2022/01/24 08:14:47;;;;;;;34.45;31.65;;;2.00;95.40;;;;;;5052611;28;20618;-72
2022/01/24 08:17:14;;;;;;;34.30;31.60;;;2.10;94.90;;;;;;5052414;28;20193;-72
2022/01/24 08:19:41;;;;;;;30.90;28.40;;;2.20;93.00;;;;;;5052373;28;20220;-72
2022/01/24 08:22:12;;;;;;;34.60;31.45;;;2.30;91.70;;;;;;5052564;28;20224;-72
2022/01/24 08:24:39;;;;;;;33.28;30.58;;;2.30;90.10;;;;;;5052377;28;20198;-72
2022/01/24 08:27:06;;;;;;;34.47;31.70;;;2.30;89.20;;;;;;5052379;28;20256;-72
2022/01/24 08:29:33;;;;;;;33.60;30.90;;;2.40;89.40;;;;;;5052074;28;20593;-72
2022/01/24 08:31:59;;;;;;;31.67;29.30;;;2.50;88.90;;;;;;5052601;28;20542;-72
2022/01/24 08:34:26;;;;;;;35.42;32.72;;;2.60;88.40;;;;;;5052307;28;20651;-72
2022/01/24 08:36:53;;;;;;;33.50;30.95;;;2.70;88.20;;;;;;5052311;28;20197;-72
2022/01/24 08:39:22;;;;;;;33.17;30.88;;;2.70;87.80;;;;;;5052102;28;20595;-72
2022/01/24 08:41:57;;;;;;;33.78;31.00;;;2.80;87.60;;;;;;5052403;28;20235;-73
2022/01/24 08:45:40;;;;;;;553.45;79.13;;;2.70;87.30;;;;;;5052397;28;20600;-72
2022/01/24 08:47:15;;;;;;;470.88;78.22;;;2.80;87.50;;;;;;5052023;28;20224;-72
2022/01/24 08:49:42;;;;;;;31.08;28.67;;;2.90;91.40;;;;;;5052008;28;20224;-72
2022/01/24 08:52:09;;;;;;;35.75;32.35;;;3.10;89.70;;;;;;5052344;28;20199;-72
2022/01/24 08:54:37;;;;;;;36.95;33.13;;;3.30;88.50;;;;;;5052141;28;20236;-72
2022/01/24 08:57:04;;;;;;;34.05;31.45;;;3.40;87.40;;;;;;5052219;28;20228;-72
2022/01/24 08:59:32;;;;;;;34.33;31.48;;;3.50;86.80;;;;;;5053111;28;20196;-72
2022/01/24 09:01:59;;;;;;;36.08;32.92;;;3.50;86.10;;;;;;5056127;28;20288;-72
2022/01/24 09:04:26;;;;;;;35.97;32.97;;;3.60;85.80;;;;;;5055882;28;20244;-72
2022/01/24 09:06:53;;;;;;;33.95;31.38;;;3.80;85.50;;;;;;5055860;28;20693;-72
2022/01/24 09:09:20;;;;;;;36.30;33.28;;;3.80;85.50;;;;;;5055553;28;20226;-72
2022/01/24 09:11:48;;;;;;;33.80;30.88;;;3.90;84.80;;;;;;5055945;28;20192;-72
2022/01/24 09:14:15;;;;;;;33.85;31.15;;;4.10;84.50;;;;;;5055848;28;20196;-72
2022/01/24 09:16:42;;;;;;;35.97;33.08;;;4.10;83.60;;;;;;5055864;28;20192;-72
2022/01/24 09:19:09;;;;;;;35.88;33.00;;;4.20;83.60;;;;;;5055578;28;20265;-72
2022/01/24 09:21:36;;;;;;;37.50;34.20;;;4.30;83.20;;;;;;5055676;28;20220;-72
2022/01/24 09:24:04;;;;;;;35.78;32.45;;;4.40;82.60;;;;;;5055722;28;20680;-72
2022/01/24 09:26:31;;;;;;;37.13;33.90;;;4.30;81.70;;;;;;5055542;28;20224;-72
2022/01/24 09:28:59;;;;;;;36.00;33.20;;;4.00;82.70;;;;;;5055682;28;20207;-72
2022/01/24 09:31:26;;;;;;;34.30;31.80;;;4.00;83.00;;;;;;5055330;28;20303;-72
2022/01/24 09:33:55;;;;;;;35.20;32.55;;;4.00;83.40;;;;;;5055387;28;20200;-73
2022/01/24 09:36:22;;;;;;;36.10;33.50;;;4.10;82.60;;;;;;5055450;28;20273;-73
2022/01/24 09:38:49;;;;;;;37.20;34.30;;;4.30;82.40;;;;;;5055319;28;20228;-73
2022/01/24 09:41:17;;;;;;;37.28;33.92;;;4.40;82.10;;;;;;5055278;28;20682;-73
2022/01/24 09:43:44;;;;;;;34.92;32.50;;;4.50;81.90;;;;;;5055370;28;20193;-73
2022/01/24 09:46:13;;;;;;;36.63;33.83;;;4.60;82.70;;;;;;5055196;28;20585;-73
2022/01/24 09:48:42;;;;;;;36.17;33.40;;;4.70;81.30;;;;;;5055200;28;20729;-73
2022/01/24 09:51:09;;;;;;;34.63;31.70;;;4.80;80.30;;;;;;5054951;28;20217;-73
2022/01/24 09:53:37;;;;;;;35.97;33.20;;;5.00;79.70;;;;;;5055293;28;20657;-72
2022/01/24 09:56:05;;;;;;;35.08;32.58;;;5.10;79.00;;;;;;5055127;28;20224;-73
2022/01/24 09:58:34;;;;;;;33.00;30.67;;;5.00;79.70;;;;;;5055074;28;20212;-73
2022/01/24 10:01:01;;;;;;;35.80;33.13;;;5.00;79.70;;;;;;5054837;28;20304;-72
2022/01/24 10:03:29;;;;;;;34.35;31.85;;;5.10;79.30;;;;;;5054897;28;20288;-73
2022/01/24 10:05:58;;;;;;;32.65;30.45;;;5.10;78.60;;;;;;5054912;28;20228;-72
2022/01/24 10:08:26;;;;;;;33.95;31.70;;;5.20;78.10;;;;;;5054661;28;20192;-72
2022/01/24 10:10:55;;;;;;;33.42;30.77;;;5.20;78.00;;;;;;5053671;28;20406;-72
2022/01/24 10:16:29;;;;;;;32.17;30.17;;;5.20;78.50;;;;;;5054793;28;20200;-72
2022/01/24 10:19:04;;;;;;;29.65;27.85;;;5.20;77.60;;;;;;5054821;28;20207;-72
2022/01/24 10:21:31;;;;;;;32.40;30.30;;;5.10;77.50;;;;;;5054481;28;20780;-73
2022/01/24 10:23:57;;;;;;;30.50;28.33;;;5.10;77.10;;;;;;5054558;28;20279;-73
2022/01/24 10:26:25;;;;;;;30.40;28.30;;;5.20;77.40;;;;;;5054227;28;20220;-72
2022/01/24 10:28:52;;;;;;;29.83;27.75;;;5.40;76.50;;;;;;5054460;28;20292;-72
2022/01/24 10:31:24;;;;;;;29.67;27.63;;;5.50;75.70;;;;;;5054458;28;20309;-72
2022/01/24 10:34:00;;;;;;;30.70;28.70;;;5.30;77.40;;;;;;5054337;28;20716;-73
2022/01/24 10:36:41;;;;;;;30.02;28.13;;;5.40;77.10;;;;;;5054372;28;20291;-72
2022/01/24 10:39:13;;;;;;;28.75;27.05;;;5.50;76.70;;;;;;5054245;28;20201;-73
2022/01/24 10:44:30;;;;;;;29.48;27.25;;;5.80;75.80;;;;;;5051406;28;20330;-72
2022/01/24 10:47:16;;;;;;;29.83;27.95;;;5.70;74.90;;;;;;5054054;28;20266;-73
2022/01/24 10:49:45;;;;;;;29.70;27.70;;;5.70;74.70;;;;;;5053890;28;20311;-72
2022/01/24 10:52:17;;;;;;;30.35;28.48;;;5.60;74.90;;;;;;5054223;28;20204;-73
2022/01/24 10:54:44;;;;;;;28.17;26.10;;;5.80;74.80;;;;;;5054140;28;20200;-73
2022/01/24 10:57:21;;;;;;;29.40;27.50;;;5.90;73.90;;;;;;5053928;28;20752;-73
2022/01/24 10:59:48;;;;;;;27.98;26.27;;;6.00;74.50;;;;;;5053768;28;20219;-72
2022/01/24 11:02:16;;;;;;;29.33;27.33;;;6.10;73.50;;;;;;5054024;28;20291;-73
2022/01/24 11:04:44;;;;;;;27.88;26.13;;;6.20;73.40;;;;;;5053455;28;20205;-73
2022/01/24 11:07:12;;;;;;;29.00;27.30;;;6.20;73.20;;;;;;5053777;28;20223;-73
2022/01/24 11:09:41;;;;;;;28.90;27.20;;;6.40;72.90;;;;;;5053371;28;20605;-73
2022/01/24 11:12:11;;;;;;;29.23;27.33;;;6.40;73.60;;;;;;5053538;28;20192;-73
2022/01/24 11:14:39;;;;;;;29.33;27.48;;;6.50;74.40;;;;;;5053518;28;20197;-72
2022/01/24 11:17:09;;;;;;;32.53;30.30;;;6.50;74.20;;;;;;5053482;28;20205;-73
2022/01/24 11:19:40;;;;;;;45.72;41.67;;;6.40;74.20;;;;;;5053361;28;20303;-73
2022/01/24 11:22:18;;;;;;;28.63;26.83;;;6.50;74.00;;;;;;5053406;28;20601;-73
2022/01/24 11:24:53;;;;;;;28.90;27.10;;;6.50;73.00;;;;;;5053409;28;20203;-73
2022/01/24 11:27:21;;;;;;;28.55;26.85;;;6.30;72.30;;;;;;5053355;28;20311;-73
2022/01/24 11:29:51;;;;;;;29.48;27.52;;;6.40;72.40;;;;;;5053078;28;20225;-73
2022/01/24 11:32:25;;;;;;;27.77;25.90;;;6.30;72.70;;;;;;5053299;28;20196;-72
2022/01/24 11:34:53;;;;;;;28.92;26.88;;;6.30;72.60;;;;;;5053288;28;20243;-73
2022/01/24 11:37:38;;;;;;;29.20;27.30;;;6.10;73.10;;;;;;5053109;28;20197;-73
2022/01/24 11:40:11;;;;;;;27.65;25.95;;;6.30;73.40;;;;;;5052929;28;20308;-73
2022/01/24 11:42:39;;;;;;;28.13;26.42;;;6.20;72.80;;;;;;5053148;28;20219;-73
2022/01/24 11:45:13;;;;;;;26.48;24.88;;;6.40;72.50;;;;;;5053145;28;20204;-72
2022/01/24 11:47:41;;;;;;;28.83;26.90;;;6.60;72.30;;;;;;5053004;28;20700;-73
2022/01/24 11:50:31;;;;;;;27.33;25.73;;;6.80;71.90;;;;;;5052695;28;20636;-73
2022/01/24 11:52:59;;;;;;;26.25;24.70;;;6.90;71.50;;;;;;5053000;28;20194;-72
2022/01/24 11:55:34;;;;;;;28.42;26.42;;;6.90;71.30;;;;;;5052889;28;20566;-73
2022/01/24 11:58:04;;;;;;;26.83;25.02;;;6.90;73.70;;;;;;5052977;28;20261;-73
2022/01/24 12:00:37;;;;;;;27.20;25.60;;;7.00;72.00;;;;;;5052715;28;20303;-73
2022/01/24 12:03:16;;;;;;;26.90;25.20;;;7.20;71.10;;;;;;5052618;28;20717;-73
2022/01/24 12:05:45;;;;;;;27.02;25.52;;;7.30;70.50;;;;;;5052835;28;20681;-73
2022/01/24 12:08:14;;;;;;;26.58;24.90;;;7.30;70.80;;;;;;5052576;28;20235;-73
2022/01/24 12:10:49;;;;;;;29.60;27.77;;;7.40;70.40;;;;;;5052376;28;20221;-73
2022/01/24 12:13:25;;;;;;;29.38;27.40;;;7.50;70.20;;;;;;5052769;28;20196;-73
2022/01/24 12:15:59;;;;;;;31.75;29.65;;;7.50;69.60;;;;;;5052678;28;20283;-73
2022/01/24 12:18:53;;;;;;;32.53;30.05;;;7.50;70.00;;;;;;5052877;28;20315;-73
2022/01/24 12:21:25;;;;;;;33.28;30.95;;;7.40;70.40;;;;;;5052400;28;20308;-72
2022/01/24 12:23:53;;;;;;;31.85;29.50;;;7.40;71.40;;;;;;5052406;28;20235;-72
2022/01/24 12:26:28;;;;;;;30.08;27.95;;;7.60;70.00;;;;;;5052346;28;20204;-73
2022/01/24 12:28:59;;;;;;;30.95;28.83;;;7.50;69.70;;;;;;5052460;28;20220;-73
2022/01/24 12:31:29;;;;;;;30.02;28.13;;;7.30;70.40;;;;;;5052257;28;20217;-72
2022/01/24 12:34:15;;;;;;;30.83;28.77;;;7.40;71.30;;;;;;5051865;28;20196;-73
2022/01/24 12:37:13;;;;;;;29.23;27.33;;;7.40;70.30;;;;;;5052377;28;20283;-73
2022/01/24 12:39:52;;;;;;;30.15;28.30;;;7.30;70.50;;;;;;5052119;28;20307;-73
2022/01/24 12:48:14;;;;;;;30.52;28.27;;;7.30;70.50;;;;;;5052287;28;20219;-73
2022/01/24 12:50:46;;;;;;;27.90;26.00;;;7.30;71.90;;;;;;5052155;28;20235;-73
2022/01/24 12:53:15;;;;;;;29.35;27.10;;;7.30;70.50;;;;;;5052412;28;20228;-72
2022/01/24 12:55:42;;;;;;;27.58;25.70;;;7.30;70.80;;;;;;5052365;28;20197;-72
2022/01/24 12:58:10;;;;;;;27.83;26.02;;;7.20;70.50;;;;;;5052234;28;20196;-72
2022/01/24 13:00:44;;;;;;;28.25;26.50;;;7.20;71.20;;;;;;5051975;28;20230;-73
2022/01/24 13:03:12;;;;;;;27.15;25.20;;;7.10;71.20;;;;;;5051960;28;20287;-72
2022/01/24 13:05:39;;;;;;;27.83;25.90;;;7.30;70.90;;;;;;5052181;28;20288;-72
2022/01/24 13:08:06;;;;;;;29.10;27.27;;;7.20;71.10;;;;;;5051970;28;20220;-73
2022/01/24 13:10:33;;;;;;;26.95;25.27;;;7.50;70.30;;;;;;5051428;28;20224;-73
2022/01/24 13:13:05;;;;;;;29.40;27.50;;;7.60;69.90;;;;;;5051915;28;20197;-73
2022/01/24 13:21:11;;;;;;;26.80;25.10;;;7.50;70.20;;;;;;5051784;28;20212;-73
2022/01/24 13:23:43;;;;;;;28.85;26.52;;;7.40;70.20;;;;;;5051987;28;20650;-73
2022/01/24 13:26:11;;;;;;;29.00;26.77;;;7.40;70.20;;;;;;5051740;28;20216;-73
2022/01/24 13:28:38;;;;;;;29.70;27.58;;;7.50;70.30;;;;;;5051741;28;20274;-73
2022/01/24 13:31:07;;;;;;;26.73;25.05;;;7.40;70.40;;;;;;5051638;28;20223;-72
2022/01/24 13:33:35;;;;;;;27.98;26.27;;;7.50;70.80;;;;;;5051781;28;20203;-73
2022/01/24 13:36:05;;;;;;;27.77;25.63;;;7.50;70.10;;;;;;5051915;28;20207;-73
2022/01/24 13:38:34;;;;;;;28.30;26.48;;;7.50;70.60;;;;;;5051779;28;20196;-72
2022/01/24 13:41:04;;;;;;;27.40;25.70;;;7.60;70.60;;;;;;5051615;28;20230;-72
2022/01/24 13:43:38;;;;;;;28.58;26.65;;;7.70;70.40;;;;;;5051874;28;20201;-73
2022/01/24 13:46:08;;;;;;;28.95;27.02;;;7.70;70.20;;;;;;5052150;28;20200;-73
2022/01/24 13:48:41;;;;;;;28.08;26.17;;;7.60;70.20;;;;;;5055209;28;20295;-73
2022/01/24 13:51:09;;;;;;;29.17;27.08;;;7.80;69.80;;;;;;5054999;28;20319;-73
2022/01/24 13:53:39;;;;;;;28.25;26.08;;;7.70;69.80;;;;;;5055391;28;20284;-73
2022/01/24 13:56:28;;;;;;;30.90;27.83;;;7.80;70.10;;;;;;5055259;28;20688;-73
2022/01/24 13:59:09;;;;;;;30.08;28.02;;;7.70;69.90;;;;;;5055098;28;20233;-73
2022/01/24 14:01:39;;;;;;;27.90;25.80;;;7.60;70.10;;;;;;5055012;28;20645;-73
2022/01/24 14:04:07;;;;;;;27.45;25.67;;;7.70;70.40;;;;;;5054819;28;20197;-73
2022/01/24 14:06:36;;;;;;;27.02;25.13;;;7.80;70.00;;;;;;5054960;28;20208;-73
2022/01/24 14:09:07;;;;;;;27.15;25.27;;;7.80;69.30;;;;;;5054726;28;20216;-71
2022/01/24 14:11:40;;;;;;;26.42;24.63;;;7.80;69.50;;;;;;5054775;28;20224;-72